Kezdőlap
METAR-TAF:

METAR-TAF

Repülőterek :

Meeker Airport

Meeker, Colorado, Amerikai Egyesült Államok

földrajzi szélesség: 40-02-32N, földrajzi hosszúság: 107-53-23W, magasság: 1948 m

Jelenlegi meteorológiai megfigyelések

A jelentés 43 perccel ezelõtt készült, 23:53 UTC
Nyugat-délnyugati szél 17 kt széllökések: 28 kt
Hőmérséklet 12°C
Páratartalom 22%
Légköri nyomás 1009 hPa
Látótávolság: 16.1 km
Kevés felhő 10000 lábon

METAR: KEEO 042353Z AUTO 25017G28KT 10SM FEW100 12/M09 A2979 RMK AO2 PK WND 24028/2346 SLP074 T01171089 10133 20100 56011

Idő: 18:36 (00:36 UTC)


TAF: hiányzik

Meteorológiai megfigyelések és előrejelzések több, mint 4000 repülőtéren (METAR és TAF jelentéseket).

A térképen piros és sárga pontok jelzik az elérhető meteorológiai állomásokat.

Mozgassa az egeret a pont fölött, hogy megjelenjen az állomás neve.

Azután kattintson az időjárási megfigyelések és előrejelzések megtekintéséhez.

A térkép megváltoztatása: kattintson a fekete keresztel jelölt zöld gombra ráközelítéshez, a vonallal jelölt zöld gombra távolításhoz, vagy a zöld nyilakra a szomszédos térképek eléréséhez.


METAR-TAF: